Time;durP1;ratioP1;P1;durP2;ratioP2;P2;SDS_P1;SDS_P2;PMS_P1;PMS_P2;Temp;Humidity;BMP_temperature;BMP_pressure;BME280_temperature;BME280_humidity;BME280_pressure;Samples;Min_cycle;Max_cycle;Signal;HPM_P1;HPM_P2
2021/12/29 00:00:36;;;;;;;26.45;7.82;;;;;;;;;;5028698;28;20053;-57
2021/12/29 00:03:04;;;;;;;37.97;8.18;;;;;;;;;;5030248;28;20037;-57
2021/12/29 00:05:29;;;;;;;45.88;7.50;;;;;;;;;;5012729;28;20033;-56
2021/12/29 00:07:58;;;;;;;31.38;7.75;;;;;;;;;;5024914;28;20047;-57
2021/12/29 00:10:25;;;;;;;29.70;8.05;;;;;;;;;;5024603;28;20029;-56
2021/12/29 00:12:53;;;;;;;26.65;7.75;;;;;;;;;;4992640;28;20052;-57
2021/12/29 00:15:20;;;;;;;21.70;7.45;;;;;;;;;;5012279;28;20481;-57
2021/12/29 00:17:45;;;;;;;19.52;7.22;;;;;;;;;;5026011;28;20518;-57
2021/12/29 00:20:15;;;;;;;15.88;7.05;;;;;;;;;;5026067;28;20034;-57
2021/12/29 00:22:45;;;;;;;15.80;7.63;;;;;;;;;;5008566;28;20459;-58
2021/12/29 00:25:11;;;;;;;19.13;7.20;;;;;;;;;;5012296;28;20033;-56
2021/12/29 00:27:41;;;;;;;14.27;6.80;;;;;;;;;;5030445;28;20045;-58
2021/12/29 00:30:09;;;;;;;18.38;6.80;;;;;;;;;;5030578;28;20029;-58
2021/12/29 00:32:36;;;;;;;13.88;6.45;;;;;;;;;;5030601;28;20033;-58
2021/12/29 00:35:05;;;;;;;17.42;7.22;;;;;;;;;;5014230;28;20467;-57
2021/12/29 00:37:30;;;;;;;19.85;6.30;;;;;;;;;;5029240;28;20114;-56
2021/12/29 00:39:56;;;;;;;16.73;5.45;;;;;;;;;;5029552;28;20028;-57
2021/12/29 00:42:21;;;;;;;16.13;6.70;;;;;;;;;;5010633;28;20487;-57
2021/12/29 00:44:53;;;;;;;16.00;6.43;;;;;;;;;;5032181;28;20108;-57
2021/12/29 00:47:24;;;;;;;18.17;5.90;;;;;;;;;;5027835;28;20116;-56
2021/12/29 00:49:53;;;;;;;21.15;6.13;;;;;;;;;;5012586;28;20037;-57
2021/12/29 00:52:24;;;;;;;23.77;7.00;;;;;;;;;;5009661;28;20882;-56
2021/12/29 00:54:50;;;;;;;21.70;6.32;;;;;;;;;;5030872;28;20127;-57
2021/12/29 00:57:17;;;;;;;21.13;7.32;;;;;;;;;;5032277;28;20519;-56
2021/12/29 00:59:45;;;;;;;23.38;6.70;;;;;;;;;;5012738;28;20128;-56
2021/12/29 01:02:11;;;;;;;27.50;7.90;;;;;;;;;;4996996;28;20025;-56
2021/12/29 01:04:37;;;;;;;32.03;7.72;;;;;;;;;;5031543;28;20564;-56
2021/12/29 01:07:03;;;;;;;36.15;8.82;;;;;;;;;;5031263;28;20025;-56
2021/12/29 01:09:32;;;;;;;36.15;8.85;;;;;;;;;;5029733;28;20067;-56
2021/12/29 01:12:00;;;;;;;29.70;8.68;;;;;;;;;;5012059;28;20035;-56
2021/12/29 01:14:30;;;;;;;33.00;9.10;;;;;;;;;;5034380;28;22031;-56
2021/12/29 01:16:56;;;;;;;32.08;8.40;;;;;;;;;;5001095;28;20163;-56
2021/12/29 01:19:23;;;;;;;27.15;8.30;;;;;;;;;;5034613;28;20033;-56
2021/12/29 01:21:55;;;;;;;29.77;8.77;;;;;;;;;;5034144;28;20025;-57
2021/12/29 01:24:27;;;;;;;32.63;10.35;;;;;;;;;;5029362;28;20148;-56
2021/12/29 01:26:58;;;;;;;35.85;10.45;;;;;;;;;;5010356;28;20624;-56
2021/12/29 01:29:28;;;;;;;25.70;8.57;;;;;;;;;;5012785;28;20069;-56
2021/12/29 01:31:54;;;;;;;32.40;10.32;;;;;;;;;;5019163;28;20052;-56
2021/12/29 01:34:19;;;;;;;33.33;9.95;;;;;;;;;;4996945;28;20052;-57
2021/12/29 01:36:47;;;;;;;34.47;10.10;;;;;;;;;;4996345;28;20044;-56
2021/12/29 01:39:18;;;;;;;36.63;10.45;;;;;;;;;;5018324;28;20052;-56
2021/12/29 01:41:44;;;;;;;47.13;10.55;;;;;;;;;;5019400;28;20571;-56
2021/12/29 01:44:14;;;;;;;35.00;9.43;;;;;;;;;;5018011;28;20025;-57
2021/12/29 01:46:40;;;;;;;32.20;10.10;;;;;;;;;;5020028;28;20057;-56
2021/12/29 01:49:05;;;;;;;35.90;10.85;;;;;;;;;;5017541;28;20076;-57
2021/12/29 01:51:35;;;;;;;39.60;11.20;;;;;;;;;;5001379;28;20029;-57
2021/12/29 01:54:24;;;;;;;45.00;10.38;;;;;;;;;;4999284;28;20034;-56
2021/12/29 01:56:56;;;;;;;48.58;10.70;;;;;;;;;;5016829;28;20125;-55
2021/12/29 01:59:25;;;;;;;54.25;11.05;;;;;;;;;;5000763;28;22148;-55
2021/12/29 02:01:53;;;;;;;47.53;11.23;;;;;;;;;;4998826;28;20021;-56
2021/12/29 02:04:18;;;;;;;41.88;11.18;;;;;;;;;;5017239;28;20026;-57
2021/12/29 02:06:44;;;;;;;42.38;9.68;;;;;;;;;;4979375;28;20780;-56
2021/12/29 02:09:14;;;;;;;44.42;10.20;;;;;;;;;;4992571;28;20036;-56
2021/12/29 02:11:42;;;;;;;46.33;11.13;;;;;;;;;;4979082;28;20156;-58
2021/12/29 02:14:10;;;;;;;43.38;10.73;;;;;;;;;;5017448;28;20021;-57
2021/12/29 02:16:36;;;;;;;37.60;10.65;;;;;;;;;;4998898;28;20036;-56
2021/12/29 02:19:06;;;;;;;45.78;10.70;;;;;;;;;;5011191;28;20116;-56
2021/12/29 02:21:34;;;;;;;29.58;9.18;;;;;;;;;;5016509;28;20030;-56
2021/12/29 02:26:38;;;;;;;32.40;9.13;;;;;;;;;;5013988;28;20479;-56
2021/12/29 02:29:06;;;;;;;25.52;8.18;;;;;;;;;;5032081;28;20056;-56
2021/12/29 02:31:32;;;;;;;25.88;8.98;;;;;;;;;;5033658;28;20061;-56
2021/12/29 02:34:04;;;;;;;22.30;7.38;;;;;;;;;;5033228;28;20116;-57
2021/12/29 02:36:30;;;;;;;23.13;7.75;;;;;;;;;;5008727;28;20478;-57
2021/12/29 02:38:56;;;;;;;26.80;8.18;;;;;;;;;;5031186;28;20032;-57
2021/12/29 02:41:25;;;;;;;18.30;6.40;;;;;;;;;;5033028;28;20492;-56
2021/12/29 02:44:04;;;;;;;22.70;6.63;;;;;;;;;;5031029;28;20677;-57
2021/12/29 02:46:36;;;;;;;22.15;6.40;;;;;;;;;;5034083;28;20033;-56
2021/12/29 02:49:04;;;;;;;25.52;6.53;;;;;;;;;;5014661;28;20065;-56
2021/12/29 02:51:31;;;;;;;27.00;6.88;;;;;;;;;;5014389;28;20743;-56
2021/12/29 02:53:59;;;;;;;29.83;7.07;;;;;;;;;;5031391;28;20450;-57
2021/12/29 02:56:30;;;;;;;26.67;7.90;;;;;;;;;;5031168;28;20063;-56
2021/12/29 02:58:58;;;;;;;40.13;7.10;;;;;;;;;;5032120;28;20032;-56
2021/12/29 03:01:24;;;;;;;24.42;7.10;;;;;;;;;;5033584;28;20032;-55
2021/12/29 03:03:52;;;;;;;31.35;8.27;;;;;;;;;;5032447;28;20690;-56
2021/12/29 03:06:17;;;;;;;28.52;7.57;;;;;;;;;;5010229;28;20147;-55
2021/12/29 03:08:43;;;;;;;30.63;6.97;;;;;;;;;;4994597;28;20032;-57
2021/12/29 03:11:09;;;;;;;19.48;6.07;;;;;;;;;;5031391;28;20036;-56
2021/12/29 03:13:36;;;;;;;29.60;6.75;;;;;;;;;;5013092;28;20111;-55
2021/12/29 03:16:08;;;;;;;29.85;7.72;;;;;;;;;;5033659;28;20020;-56
2021/12/29 03:18:33;;;;;;;27.10;7.28;;;;;;;;;;4996038;28;20045;-55
2021/12/29 03:21:01;;;;;;;31.00;7.40;;;;;;;;;;5011333;28;20944;-58
2021/12/29 03:23:30;;;;;;;25.13;8.07;;;;;;;;;;5032549;28;20393;-56
2021/12/29 03:26:02;;;;;;;29.27;8.60;;;;;;;;;;5031081;28;20492;-56
2021/12/29 03:28:32;;;;;;;31.00;9.40;;;;;;;;;;5023169;28;21081;-55
2021/12/29 03:30:57;;;;;;;40.45;8.57;;;;;;;;;;5014082;28;20044;-57
2021/12/29 03:33:28;;;;;;;41.33;10.68;;;;;;;;;;5012527;28;20033;-56
2021/12/29 03:36:00;;;;;;;42.97;10.35;;;;;;;;;;5014560;28;20120;-56
2021/12/29 03:38:30;;;;;;;36.13;10.27;;;;;;;;;;5008982;28;20950;-56
2021/12/29 03:40:58;;;;;;;35.65;10.95;;;;;;;;;;5015572;28;20063;-57
2021/12/29 03:43:25;;;;;;;29.13;10.27;;;;;;;;;;5016166;28;20025;-55
2021/12/29 03:45:51;;;;;;;31.27;10.52;;;;;;;;;;5013872;28;20029;-58
2021/12/29 03:48:23;;;;;;;31.55;9.90;;;;;;;;;;4994175;28;20021;-56
2021/12/29 03:50:55;;;;;;;29.58;10.07;;;;;;;;;;4979307;28;20037;-58
2021/12/29 03:53:26;;;;;;;41.45;10.10;;;;;;;;;;4990985;28;20037;-56
2021/12/29 03:55:54;;;;;;;33.78;10.43;;;;;;;;;;5011456;28;20095;-56
2021/12/29 03:58:50;;;;;;;24.75;9.52;;;;;;;;;;5012852;28;20026;-57
2021/12/29 04:01:25;;;;;;;33.55;9.52;;;;;;;;;;5013649;28;20030;-57
2021/12/29 04:03:54;;;;;;;34.75;9.88;;;;;;;;;;5005688;28;20449;-58
2021/12/29 04:06:22;;;;;;;27.95;8.98;;;;;;;;;;5006335;28;20074;-56
2021/12/29 04:08:50;;;;;;;28.58;9.60;;;;;;;;;;4996110;28;20037;-57
2021/12/29 04:11:18;;;;;;;28.63;8.85;;;;;;;;;;4994097;28;20143;-57
2021/12/29 04:16:50;;;;;;;34.28;9.38;;;;;;;;;;5011744;28;20149;-58
2021/12/29 04:19:40;;;;;;;32.17;9.80;;;;;;;;;;4996225;28;20514;-57
2021/12/29 04:22:08;;;;;;;34.15;9.77;;;;;;;;;;5013887;28;20057;-56
2021/12/29 04:24:36;;;;;;;23.42;8.75;;;;;;;;;;5013236;28;20172;-56
2021/12/29 04:27:05;;;;;;;39.13;10.35;;;;;;;;;;5013703;28;20029;-57
2021/12/29 04:29:33;;;;;;;32.35;11.07;;;;;;;;;;5012891;28;20080;-57
2021/12/29 04:32:08;;;;;;;25.77;9.13;;;;;;;;;;5031115;28;20045;-57
2021/12/29 04:34:36;;;;;;;24.98;8.77;;;;;;;;;;5028139;28;20032;-56
2021/12/29 04:37:02;;;;;;;35.80;10.38;;;;;;;;;;5013696;28;20446;-57
2021/12/29 04:39:30;;;;;;;31.50;10.65;;;;;;;;;;5030062;28;20025;-57
2021/12/29 04:41:57;;;;;;;37.00;11.18;;;;;;;;;;5013664;28;20072;-57
2021/12/29 04:44:25;;;;;;;33.13;11.32;;;;;;;;;;5028974;28;20036;-57
2021/12/29 04:46:51;;;;;;;36.70;10.13;;;;;;;;;;4991117;28;20040;-57
2021/12/29 04:49:25;;;;;;;31.35;11.45;;;;;;;;;;5028525;28;20037;-56
2021/12/29 04:52:13;;;;;;;39.08;11.32;;;;;;;;;;5012372;28;20071;-56
2021/12/29 04:54:39;;;;;;;43.63;11.85;;;;;;;;;;5011717;28;20361;-56
2021/12/29 04:57:12;;;;;;;31.95;11.27;;;;;;;;;;5030262;28;20025;-56
2021/12/29 05:03:16;;;;;;;31.25;10.43;;;;;;;;;;5030455;28;20028;-56
2021/12/29 05:08:44;;;;;;;34.42;10.18;;;;;;;;;;4994468;28;20943;-56
2021/12/29 05:11:13;;;;;;;39.03;11.15;;;;;;;;;;5028524;28;20067;-56
2021/12/29 05:13:44;;;;;;;33.95;10.18;;;;;;;;;;5030197;28;20116;-57
2021/12/29 05:16:11;;;;;;;26.88;10.48;;;;;;;;;;5029057;28;20033;-56
2021/12/29 05:18:37;;;;;;;30.52;9.32;;;;;;;;;;5029430;28;20044;-58
2021/12/29 05:21:06;;;;;;;31.73;9.50;;;;;;;;;;5028041;28;20408;-58
2021/12/29 05:23:34;;;;;;;38.92;10.70;;;;;;;;;;5029633;28;20189;-58
2021/12/29 05:26:05;;;;;;;27.77;9.45;;;;;;;;;;5010898;28;20488;-58
2021/12/29 05:28:31;;;;;;;34.92;10.90;;;;;;;;;;5029973;28;20048;-57
2021/12/29 05:31:01;;;;;;;33.60;9.68;;;;;;;;;;5010614;28;20045;-57
2021/12/29 05:33:29;;;;;;;36.03;11.65;;;;;;;;;;5029173;28;20029;-57
2021/12/29 05:35:55;;;;;;;32.17;10.48;;;;;;;;;;5010958;28;20043;-57
2021/12/29 05:38:21;;;;;;;35.30;11.90;;;;;;;;;;4997179;28;20052;-57
2021/12/29 05:40:48;;;;;;;31.20;11.43;;;;;;;;;;5012611;28;20029;-57
2021/12/29 05:43:18;;;;;;;37.33;11.73;;;;;;;;;;5030000;28;20012;-58
2021/12/29 05:45:44;;;;;;;26.15;10.18;;;;;;;;;;5013161;28;20036;-58
2021/12/29 05:48:09;;;;;;;30.20;11.13;;;;;;;;;;5011521;28;20439;-58
2021/12/29 05:50:35;;;;;;;25.02;10.27;;;;;;;;;;5029833;28;20029;-57
2021/12/29 05:53:03;;;;;;;28.27;11.05;;;;;;;;;;5012767;28;20032;-58
2021/12/29 05:55:31;;;;;;;42.78;11.20;;;;;;;;;;4995018;28;20132;-58
2021/12/29 05:57:56;;;;;;;31.35;9.93;;;;;;;;;;5011494;28;20108;-56
2021/12/29 06:00:25;;;;;;;28.88;10.93;;;;;;;;;;4995728;28;20127;-57
2021/12/29 06:02:51;;;;;;;36.35;10.43;;;;;;;;;;5017161;28;20087;-56
2021/12/29 06:05:17;;;;;;;34.13;11.25;;;;;;;;;;5031594;28;20052;-57
2021/12/29 06:07:45;;;;;;;26.27;10.45;;;;;;;;;;5013257;28;20582;-57
2021/12/29 06:10:10;;;;;;;30.08;11.50;;;;;;;;;;5017210;28;20041;-57
2021/12/29 06:12:40;;;;;;;30.65;11.35;;;;;;;;;;5015410;28;20040;-57
2021/12/29 06:15:11;;;;;;;28.73;10.80;;;;;;;;;;5030504;28;20036;-58
2021/12/29 06:17:39;;;;;;;26.15;10.18;;;;;;;;;;5035669;28;20028;-57
2021/12/29 06:20:11;;;;;;;27.20;9.90;;;;;;;;;;5029869;28;20035;-58
2021/12/29 06:22:39;;;;;;;30.75;11.30;;;;;;;;;;5031693;28;20117;-58
2021/12/29 06:25:10;;;;;;;31.83;10.30;;;;;;;;;;5014805;28;20028;-56
2021/12/29 06:27:38;;;;;;;45.05;11.60;;;;;;;;;;5015893;28;20058;-58
2021/12/29 06:30:08;;;;;;;22.63;8.98;;;;;;;;;;5034810;28;20181;-56
2021/12/29 06:32:34;;;;;;;38.90;11.45;;;;;;;;;;5031118;28;20528;-57
2021/12/29 06:35:05;;;;;;;33.17;10.18;;;;;;;;;;5014314;28;20039;-57
2021/12/29 06:37:31;;;;;;;39.40;9.90;;;;;;;;;;5031997;28;20100;-58
2021/12/29 06:39:58;;;;;;;37.03;10.80;;;;;;;;;;5014505;28;20036;-58
2021/12/29 06:42:29;;;;;;;43.45;11.50;;;;;;;;;;5033309;28;20037;-57
2021/12/29 06:44:57;;;;;;;33.50;11.02;;;;;;;;;;5034988;28;20033;-56
2021/12/29 06:47:28;;;;;;;40.97;11.13;;;;;;;;;;5000945;28;20041;-56
2021/12/29 06:49:56;;;;;;;26.75;10.35;;;;;;;;;;5033485;28;20112;-57
2021/12/29 06:52:23;;;;;;;46.72;10.70;;;;;;;;;;5015345;28;20484;-57
2021/12/29 06:54:49;;;;;;;33.88;11.70;;;;;;;;;;5013149;28;20599;-58
2021/12/29 06:57:19;;;;;;;27.83;9.93;;;;;;;;;;5016482;28;20032;-56
2021/12/29 06:59:45;;;;;;;40.83;10.40;;;;;;;;;;5018355;28;20927;-57
2021/12/29 07:02:17;;;;;;;36.15;10.85;;;;;;;;;;5034793;28;20088;-58
2021/12/29 07:04:47;;;;;;;36.72;12.10;;;;;;;;;;5033055;28;20943;-57
2021/12/29 07:07:15;;;;;;;39.13;11.80;;;;;;;;;;5033127;28;20500;-56
2021/12/29 07:09:45;;;;;;;34.92;10.18;;;;;;;;;;5000324;28;20132;-56
2021/12/29 07:12:13;;;;;;;29.48;9.98;;;;;;;;;;5016123;28;20133;-57
2021/12/29 07:14:39;;;;;;;53.08;11.00;;;;;;;;;;5012366;28;20071;-57
2021/12/29 07:17:10;;;;;;;49.42;11.27;;;;;;;;;;5013410;28;20435;-56
2021/12/29 07:19:40;;;;;;;49.72;10.77;;;;;;;;;;5012797;28;20501;-56
2021/12/29 07:22:08;;;;;;;45.22;12.05;;;;;;;;;;5030605;28;20679;-58
2021/12/29 07:24:34;;;;;;;59.17;12.60;;;;;;;;;;5029045;28;20040;-57
2021/12/29 07:27:00;;;;;;;39.67;11.85;;;;;;;;;;5032442;28;20040;-56
2021/12/29 07:29:25;;;;;;;62.17;12.48;;;;;;;;;;5032744;28;20057;-56
2021/12/29 07:31:54;;;;;;;39.75;11.15;;;;;;;;;;5011371;28;20037;-56
2021/12/29 07:34:20;;;;;;;54.45;11.93;;;;;;;;;;5027772;28;20112;-57
2021/12/29 07:36:46;;;;;;;49.00;11.40;;;;;;;;;;5029332;28;21986;-57
2021/12/29 07:39:11;;;;;;;51.17;12.48;;;;;;;;;;5031312;28;20027;-57
2021/12/29 07:41:37;;;;;;;47.75;12.35;;;;;;;;;;5030872;28;20037;-56
2021/12/29 07:44:05;;;;;;;30.70;10.43;;;;;;;;;;5031416;28;20593;-57
2021/12/29 07:46:34;;;;;;;49.78;11.02;;;;;;;;;;5016963;28;20044;-57
2021/12/29 07:49:01;;;;;;;38.03;11.25;;;;;;;;;;5029226;28;20033;-57
2021/12/29 07:51:31;;;;;;;36.67;11.32;;;;;;;;;;5031292;28;20037;-57
2021/12/29 07:54:02;;;;;;;45.20;11.60;;;;;;;;;;5031293;28;20029;-57
2021/12/29 07:56:34;;;;;;;44.28;10.23;;;;;;;;;;4976885;28;20136;-59
2021/12/29 07:59:02;;;;;;;51.45;10.40;;;;;;;;;;5010906;28;20045;-56
2021/12/29 08:01:31;;;;;;;54.75;10.65;;;;;;;;;;5029414;28;20127;-56
2021/12/29 08:03:56;;;;;;;49.33;11.25;;;;;;;;;;5013459;28;20040;-56
2021/12/29 08:06:27;;;;;;;61.40;12.25;;;;;;;;;;4995738;28;20060;-57
2021/12/29 08:08:57;;;;;;;77.93;11.65;;;;;;;;;;5009288;28;20088;-58
2021/12/29 08:11:27;;;;;;;38.63;10.18;;;;;;;;;;5030261;28;20037;-57
2021/12/29 08:13:58;;;;;;;55.85;10.98;;;;;;;;;;5012137;28;20737;-57
2021/12/29 08:16:28;;;;;;;31.70;9.25;;;;;;;;;;4998774;28;20044;-58
2021/12/29 08:18:58;;;;;;;37.63;9.98;;;;;;;;;;4995924;28;20399;-58
2021/12/29 08:21:26;;;;;;;29.92;10.40;;;;;;;;;;5032251;28;20080;-58
2021/12/29 08:23:53;;;;;;;37.90;8.88;;;;;;;;;;5013427;28;20155;-56
2021/12/29 08:26:21;;;;;;;27.63;7.90;;;;;;;;;;5012775;28;20119;-56
2021/12/29 08:28:50;;;;;;;25.00;8.23;;;;;;;;;;5030334;28;20086;-58
2021/12/29 08:31:18;;;;;;;25.92;7.47;;;;;;;;;;5027590;28;20029;-57
2021/12/29 08:33:46;;;;;;;34.53;9.02;;;;;;;;;;5027210;28;21041;-58
2021/12/29 08:36:11;;;;;;;47.78;8.70;;;;;;;;;;5025202;28;20055;-56
2021/12/29 08:38:37;;;;;;;39.88;8.55;;;;;;;;;;4995787;28;20359;-57
2021/12/29 08:41:05;;;;;;;25.25;8.68;;;;;;;;;;5029933;28;20120;-58
2021/12/29 08:43:32;;;;;;;24.38;9.40;;;;;;;;;;5011711;28;20076;-57
2021/12/29 08:49:34;;;;;;;50.80;8.20;;;;;;;;;;5029497;28;20116;-57
2021/12/29 08:52:00;;;;;;;40.83;11.48;;;;;;;;;;5030873;28;20123;-57
2021/12/29 08:54:26;;;;;;;43.88;10.52;;;;;;;;;;5026059;28;20025;-58
2021/12/29 08:56:54;;;;;;;27.90;8.65;;;;;;;;;;5031671;28;20247;-58
2021/12/29 08:59:22;;;;;;;36.30;9.60;;;;;;;;;;5012454;28;20052;-58
2021/12/29 09:01:48;;;;;;;43.50;9.73;;;;;;;;;;5027337;28;20064;-57
2021/12/29 09:04:20;;;;;;;58.38;10.57;;;;;;;;;;5031067;28;20056;-58
2021/12/29 09:06:46;;;;;;;36.83;8.02;;;;;;;;;;5029395;28;20115;-58
2021/12/29 09:09:13;;;;;;;59.70;9.63;;;;;;;;;;5010044;28;20039;-57
2021/12/29 09:11:44;;;;;;;68.60;9.35;;;;;;;;;;5012896;28;20393;-58
2021/12/29 09:14:12;;;;;;;49.53;9.85;;;;;;;;;;5008378;28;20132;-57
2021/12/29 09:16:41;;;;;;;46.33;8.50;;;;;;;;;;5011352;28;20138;-57
2021/12/29 09:19:12;;;;;;;42.75;8.32;;;;;;;;;;5028027;28;20491;-56
2021/12/29 09:21:43;;;;;;;48.88;9.68;;;;;;;;;;5028086;28;20043;-57
2021/12/29 09:24:09;;;;;;;35.70;8.13;;;;;;;;;;5011499;28;20025;-58
2021/12/29 09:26:40;;;;;;;45.75;7.65;;;;;;;;;;5030034;28;20140;-59
2021/12/29 09:29:08;;;;;;;22.50;6.10;;;;;;;;;;4996341;28;20053;-58
2021/12/29 09:31:35;;;;;;;30.48;6.85;;;;;;;;;;5013939;28;20033;-57
2021/12/29 09:34:03;;;;;;;31.25;6.95;;;;;;;;;;5014374;28;20032;-57
2021/12/29 09:36:31;;;;;;;43.55;7.05;;;;;;;;;;4999980;28;20128;-57
2021/12/29 09:38:56;;;;;;;18.30;6.20;;;;;;;;;;5011967;28;20043;-58
2021/12/29 09:41:24;;;;;;;19.25;5.72;;;;;;;;;;5014938;28;20060;-56
2021/12/29 09:43:56;;;;;;;50.78;7.15;;;;;;;;;;5030000;28;20020;-57
2021/12/29 09:46:25;;;;;;;32.90;6.80;;;;;;;;;;5012636;28;20400;-58
2021/12/29 09:48:53;;;;;;;36.88;6.65;;;;;;;;;;5012627;28;21701;-56
2021/12/29 09:51:21;;;;;;;46.25;6.40;;;;;;;;;;5032349;28;20070;-56
2021/12/29 09:53:51;;;;;;;38.75;5.68;;;;;;;;;;5009044;28;20139;-56
2021/12/29 09:56:22;;;;;;;31.08;6.57;;;;;;;;;;5032252;28;20041;-57
2021/12/29 09:58:47;;;;;;;31.95;6.22;;;;;;;;;;5032931;28;20039;-57
2021/12/29 10:01:12;;;;;;;18.67;6.13;;;;;;;;;;5033016;28;20029;-57
2021/12/29 10:03:42;;;;;;;16.55;6.40;;;;;;;;;;5012202;28;20091;-57
2021/12/29 10:06:10;;;;;;;20.83;6.25;;;;;;;;;;5031687;28;20048;-56
2021/12/29 10:08:41;;;;;;;23.88;5.63;;;;;;;;;;5012701;28;20087;-56
2021/12/29 10:11:09;;;;;;;20.98;5.35;;;;;;;;;;5014535;28;20050;-57
2021/12/29 10:13:35;;;;;;;26.65;5.68;;;;;;;;;;5014747;28;20132;-56
2021/12/29 10:16:08;;;;;;;11.10;5.22;;;;;;;;;;5025975;28;21029;-57
2021/12/29 10:18:37;;;;;;;19.77;5.88;;;;;;;;;;5013075;28;20029;-55
2021/12/29 10:21:07;;;;;;;14.32;5.78;;;;;;;;;;5033186;28;20530;-57
2021/12/29 10:23:40;;;;;;;12.93;4.50;;;;;;;;;;5000555;28;20538;-56
2021/12/29 10:26:07;;;;;;;19.15;6.28;;;;;;;;;;5014788;28;20059;-55
2021/12/29 10:28:34;;;;;;;13.15;5.68;;;;;;;;;;5031046;28;20060;-57
2021/12/29 10:31:04;;;;;;;16.35;5.85;;;;;;;;;;5015350;28;20033;-57
2021/12/29 10:33:33;;;;;;;16.75;5.13;;;;;;;;;;5031308;28;20051;-57
2021/12/29 10:36:18;;;;;;;14.15;5.85;;;;;;;;;;5012249;28;20033;-57
2021/12/29 10:38:46;;;;;;;15.50;5.80;;;;;;;;;;5010534;28;20511;-57
2021/12/29 10:41:14;;;;;;;15.13;5.68;;;;;;;;;;5032278;28;20029;-57
2021/12/29 10:43:59;;;;;;;16.33;5.63;;;;;;;;;;5016504;28;20519;-56
2021/12/29 10:46:33;;;;;;;14.40;6.00;;;;;;;;;;5029372;28;20033;-58
2021/12/29 10:49:02;;;;;;;12.30;5.40;;;;;;;;;;5031506;28;20033;-57
2021/12/29 10:51:30;;;;;;;22.83;5.72;;;;;;;;;;5030248;28;20156;-57
2021/12/29 10:54:03;;;;;;;14.23;5.38;;;;;;;;;;5029647;28;20113;-57
2021/12/29 10:56:32;;;;;;;12.95;5.05;;;;;;;;;;5033197;28;20037;-57
2021/12/29 10:59:12;;;;;;;11.20;5.45;;;;;;;;;;5031964;28;20550;-56
2021/12/29 11:01:45;;;;;;;13.98;4.95;;;;;;;;;;5016153;28;20043;-56
2021/12/29 11:04:13;;;;;;;17.45;5.93;;;;;;;;;;5032170;28;20915;-56
2021/12/29 11:06:41;;;;;;;31.50;9.52;;;;;;;;;;5033465;28;20399;-56
2021/12/29 11:09:06;;;;;;;15.80;5.30;;;;;;;;;;5031757;28;20033;-56
2021/12/29 11:11:34;;;;;;;17.75;4.55;;;;;;;;;;5026693;28;20106;-56
2021/12/29 11:14:10;;;;;;;16.38;5.55;;;;;;;;;;5014655;28;20040;-56
2021/12/29 11:16:43;;;;;;;14.98;4.50;;;;;;;;;;5013433;28;20036;-57
2021/12/29 11:19:09;;;;;;;19.15;5.38;;;;;;;;;;5027466;28;20088;-58
2021/12/29 11:21:35;;;;;;;11.57;4.80;;;;;;;;;;4996942;28;20025;-57
2021/12/29 11:24:17;;;;;;;15.18;5.22;;;;;;;;;;5011265;28;20033;-57
2021/12/29 11:26:44;;;;;;;16.10;5.32;;;;;;;;;;5014073;28;20033;-57
2021/12/29 11:29:16;;;;;;;19.48;5.35;;;;;;;;;;5013754;28;20078;-56
2021/12/29 11:31:43;;;;;;;14.07;5.20;;;;;;;;;;5030997;28;20048;-57
2021/12/29 11:34:30;;;;;;;14.23;4.38;;;;;;;;;;5011448;28;20745;-56
2021/12/29 11:37:14;;;;;;;22.75;5.63;;;;;;;;;;5008665;28;20476;-57
2021/12/29 11:39:42;;;;;;;10.77;4.32;;;;;;;;;;5029392;28;20171;-57
2021/12/29 11:42:08;;;;;;;12.13;4.70;;;;;;;;;;5032943;28;20131;-57
2021/12/29 11:44:37;;;;;;;13.40;4.47;;;;;;;;;;5033244;28;20025;-57
2021/12/29 11:47:03;;;;;;;15.50;4.38;;;;;;;;;;5025883;28;20079;-57
2021/12/29 11:49:31;;;;;;;16.40;4.57;;;;;;;;;;5026303;28;20373;-57
2021/12/29 11:52:01;;;;;;;25.42;5.15;;;;;;;;;;5029344;28;20024;-57
2021/12/29 11:54:50;;;;;;;17.35;4.85;;;;;;;;;;5030192;28;21021;-57
2021/12/29 11:57:25;;;;;;;18.67;4.63;;;;;;;;;;5020334;28;20132;-57
2021/12/29 11:59:51;;;;;;;16.50;5.05;;;;;;;;;;5012932;28;20029;-58
2021/12/29 12:02:27;;;;;;;18.23;5.65;;;;;;;;;;5030478;28;20697;-58
2021/12/29 12:05:09;;;;;;;18.00;4.82;;;;;;;;;;5031568;28;22012;-57
2021/12/29 12:07:37;;;;;;;14.65;5.05;;;;;;;;;;5032314;28;20033;-57
2021/12/29 12:10:09;;;;;;;14.85;4.70;;;;;;;;;;5032616;28;20036;-57
2021/12/29 12:12:38;;;;;;;21.92;5.32;;;;;;;;;;5032291;28;20036;-57
2021/12/29 12:15:07;;;;;;;18.13;4.78;;;;;;;;;;4992431;28;20024;-57
2021/12/29 12:17:38;;;;;;;15.35;4.53;;;;;;;;;;5030105;28;20459;-57
2021/12/29 12:20:07;;;;;;;15.98;4.78;;;;;;;;;;5012766;28;20036;-57
2021/12/29 12:22:44;;;;;;;14.38;4.80;;;;;;;;;;5030473;28;20029;-57
2021/12/29 12:25:10;;;;;;;23.73;5.07;;;;;;;;;;5014031;28;21013;-56
2021/12/29 12:27:43;;;;;;;22.60;4.65;;;;;;;;;;5011950;28;20025;-57
2021/12/29 12:30:27;;;;;;;12.63;4.22;;;;;;;;;;5010157;28;20059;-57
2021/12/29 12:32:57;;;;;;;17.27;4.43;;;;;;;;;;5032450;28;20033;-57
2021/12/29 12:35:41;;;;;;;12.48;3.67;;;;;;;;;;4997668;28;20035;-57
2021/12/29 12:38:30;;;;;;;19.92;3.97;;;;;;;;;;5032311;28;20052;-57
2021/12/29 12:41:00;;;;;;;16.55;3.72;;;;;;;;;;5026855;28;20037;-57
2021/12/29 12:43:31;;;;;;;22.40;4.35;;;;;;;;;;5030156;28;20033;-56
2021/12/29 12:45:59;;;;;;;11.85;3.08;;;;;;;;;;5029344;28;20045;-57
2021/12/29 12:48:27;;;;;;;11.30;3.90;;;;;;;;;;4996296;28;20012;-59
2021/12/29 12:50:59;;;;;;;22.33;3.72;;;;;;;;;;5027982;28;20953;-57
2021/12/29 12:53:31;;;;;;;10.98;3.88;;;;;;;;;;5028289;28;20033;-57
2021/12/29 12:55:57;;;;;;;15.82;3.38;;;;;;;;;;5006435;28;20036;-57
2021/12/29 12:58:26;;;;;;;19.25;3.47;;;;;;;;;;5030263;28;20028;-58
2021/12/29 13:00:56;;;;;;;12.88;3.80;;;;;;;;;;5030310;28;20037;-57
2021/12/29 13:03:23;;;;;;;15.60;3.80;;;;;;;;;;5030489;28;20104;-57
2021/12/29 13:05:55;;;;;;;12.68;3.67;;;;;;;;;;5029806;28;20033;-57
2021/12/29 13:08:37;;;;;;;15.30;4.18;;;;;;;;;;5035017;28;20075;-57
2021/12/29 13:11:09;;;;;;;21.38;4.63;;;;;;;;;;5000514;28;20531;-58
2021/12/29 13:13:38;;;;;;;15.90;3.88;;;;;;;;;;5033202;28;20036;-58
2021/12/29 13:16:07;;;;;;;12.82;3.58;;;;;;;;;;5015608;28;20029;-58
2021/12/29 13:18:37;;;;;;;11.15;3.50;;;;;;;;;;5032307;28;20025;-59
2021/12/29 13:21:08;;;;;;;16.52;3.65;;;;;;;;;;5030540;28;20029;-58
2021/12/29 13:23:33;;;;;;;13.05;3.47;;;;;;;;;;5032957;28;20074;-58
2021/12/29 13:26:00;;;;;;;14.88;4.53;;;;;;;;;;5014499;28;20037;-58
2021/12/29 13:28:28;;;;;;;19.90;4.15;;;;;;;;;;5031790;28;20648;-58
2021/12/29 13:30:55;;;;;;;14.48;4.03;;;;;;;;;;5012995;28;20765;-58
2021/12/29 13:33:35;;;;;;;15.32;3.97;;;;;;;;;;4998892;28;20041;-56
2021/12/29 13:36:02;;;;;;;14.85;3.70;;;;;;;;;;5015009;28;20103;-57
2021/12/29 13:38:36;;;;;;;15.75;3.67;;;;;;;;;;4998343;28;20029;-58
2021/12/29 13:41:09;;;;;;;16.80;4.47;;;;;;;;;;5018450;28;20024;-57
2021/12/29 13:43:39;;;;;;;16.15;3.92;;;;;;;;;;5000036;28;20051;-57
2021/12/29 13:46:12;;;;;;;10.77;3.28;;;;;;;;;;5002695;28;20128;-57
2021/12/29 13:48:44;;;;;;;13.85;3.35;;;;;;;;;;5017849;28;20033;-57
2021/12/29 13:51:19;;;;;;;12.07;3.40;;;;;;;;;;5002364;28;20021;-56
2021/12/29 13:53:54;;;;;;;9.98;3.63;;;;;;;;;;4997114;28;20033;-57
2021/12/29 13:56:25;;;;;;;13.60;3.42;;;;;;;;;;4996783;28;20022;-57
2021/12/29 13:59:16;;;;;;;15.52;4.13;;;;;;;;;;5013171;28;20091;-58
2021/12/29 14:01:53;;;;;;;10.10;3.92;;;;;;;;;;5007962;28;20049;-56
2021/12/29 14:04:29;;;;;;;11.13;3.40;;;;;;;;;;5015211;28;20634;-57
2021/12/29 14:07:00;;;;;;;15.13;4.10;;;;;;;;;;5017678;28;20080;-57
2021/12/29 14:09:29;;;;;;;9.55;4.28;;;;;;;;;;4997961;28;20033;-57
2021/12/29 14:12:04;;;;;;;24.08;5.47;;;;;;;;;;4982248;28;20029;-57
2021/12/29 14:14:34;;;;;;;18.10;4.60;;;;;;;;;;5001128;28;20029;-57
2021/12/29 14:17:02;;;;;;;17.60;6.43;;;;;;;;;;5017607;28;20734;-57
2021/12/29 14:19:33;;;;;;;15.27;5.18;;;;;;;;;;4993160;28;20076;-57
2021/12/29 14:22:01;;;;;;;23.35;5.80;;;;;;;;;;4997502;28;20119;-57
2021/12/29 14:24:35;;;;;;;21.10;4.85;;;;;;;;;;4995687;28;20140;-57
2021/12/29 14:27:05;;;;;;;16.27;5.65;;;;;;;;;;5000814;28;20033;-57
2021/12/29 14:29:32;;;;;;;16.25;5.00;;;;;;;;;;5021805;28;21009;-57
2021/12/29 14:32:01;;;;;;;14.07;5.50;;;;;;;;;;5016541;28;20041;-57
2021/12/29 14:34:39;;;;;;;22.88;5.90;;;;;;;;;;5014641;28;20028;-57
2021/12/29 14:37:11;;;;;;;18.08;5.65;;;;;;;;;;5035141;28;20037;-57
2021/12/29 14:39:39;;;;;;;22.13;6.13;;;;;;;;;;5024808;28;22006;-57
2021/12/29 14:42:10;;;;;;;15.30;5.72;;;;;;;;;;5014671;28;20029;-57
2021/12/29 14:44:41;;;;;;;20.15;5.75;;;;;;;;;;5014757;28;20357;-57
2021/12/29 14:47:10;;;;;;;20.45;5.60;;;;;;;;;;5027632;28;20091;-57
2021/12/29 14:49:41;;;;;;;23.08;6.63;;;;;;;;;;5016786;28;20040;-57
2021/12/29 14:52:16;;;;;;;26.77;7.28;;;;;;;;;;5032716;28;20029;-57
2021/12/29 14:54:44;;;;;;;;;;;;;;;;;;5034784;28;20562;-57